createdAt,value
2019-05-19T00:00:21.953Z,5.30
2019-05-19T00:02:51.092Z,5.25
2019-05-19T00:05:20.791Z,5.72
2019-05-19T00:07:50.001Z,5.20
2019-05-19T00:10:19.117Z,5.30
2019-05-19T00:12:48.249Z,5.20
2019-05-19T00:15:17.404Z,5.40
2019-05-19T00:17:46.525Z,4.92
2019-05-19T00:20:16.481Z,5.30
2019-05-19T00:22:45.606Z,5.42
2019-05-19T00:25:14.983Z,5.65
2019-05-19T00:27:44.084Z,5.50
2019-05-19T00:30:13.229Z,5.00
2019-05-19T00:32:42.468Z,5.10
2019-05-19T00:35:11.727Z,5.20
2019-05-19T00:37:40.926Z,5.00
2019-05-19T00:40:10.250Z,5.08
2019-05-19T00:42:39.387Z,5.35
2019-05-19T00:45:09.546Z,4.93
2019-05-19T00:47:38.709Z,5.03
2019-05-19T00:50:07.917Z,5.58
2019-05-19T00:52:37.142Z,5.40
2019-05-19T00:55:06.417Z,5.53
2019-05-19T00:57:36.534Z,5.35
2019-05-19T01:00:06.553Z,5.53
2019-05-19T01:02:35.673Z,5.30
2019-05-19T01:05:05.178Z,5.85
2019-05-19T01:07:34.268Z,6.17
2019-05-19T01:10:03.409Z,6.03
2019-05-19T01:12:32.661Z,5.50
2019-05-19T01:15:01.806Z,6.10
2019-05-19T01:17:30.908Z,5.72
2019-05-19T01:20:00.034Z,5.78
2019-05-19T01:22:29.151Z,5.87
2019-05-19T01:24:58.290Z,5.83
2019-05-19T01:27:27.454Z,5.50
2019-05-19T01:29:56.554Z,5.58
2019-05-19T01:32:25.725Z,5.50
2019-05-19T01:34:54.843Z,5.58
2019-05-19T01:37:24.026Z,5.67
2019-05-19T01:39:53.138Z,5.22
2019-05-19T01:42:22.330Z,5.92
2019-05-19T01:44:51.457Z,5.55
2019-05-19T01:47:20.571Z,5.67
2019-05-19T01:49:49.728Z,5.70
2019-05-19T01:52:18.833Z,5.50
2019-05-19T01:54:47.969Z,5.33
2019-05-19T01:57:17.096Z,5.50
2019-05-19T01:59:46.224Z,5.70
2019-05-19T02:02:15.339Z,5.50
2019-05-19T02:04:44.463Z,5.70
2019-05-19T02:07:13.615Z,6.30
2019-05-19T02:09:45.907Z,5.80
2019-05-19T02:12:15.109Z,5.95
2019-05-19T02:14:44.234Z,5.50
2019-05-19T02:17:13.341Z,5.30
2019-05-19T02:19:42.582Z,6.05
2019-05-19T02:22:11.671Z,5.85
2019-05-19T02:24:40.819Z,5.78
2019-05-19T02:27:09.932Z,5.60
2019-05-19T02:29:39.039Z,5.60
2019-05-19T02:32:08.190Z,4.90
2019-05-19T02:34:37.367Z,4.97
2019-05-19T02:37:06.531Z,5.30
2019-05-19T02:39:35.791Z,5.37
2019-05-19T02:42:05.523Z,5.40
2019-05-19T02:44:36.595Z,5.60
2019-05-19T02:47:06.228Z,5.75
2019-05-19T02:49:35.672Z,5.92
2019-05-19T02:52:05.304Z,5.80
2019-05-19T02:54:35.336Z,6.25
2019-05-19T02:57:05.577Z,6.00
2019-05-19T02:59:35.462Z,6.30
2019-05-19T03:02:07.611Z,6.40
2019-05-19T03:04:36.733Z,6.67
2019-05-19T03:07:05.856Z,6.30
2019-05-19T03:09:35.010Z,6.50
2019-05-19T03:12:04.108Z,6.87
2019-05-19T03:14:33.299Z,7.22
2019-05-19T03:17:02.412Z,6.80
2019-05-19T03:19:31.566Z,7.00
2019-05-19T03:22:00.695Z,7.62
2019-05-19T03:24:29.853Z,6.92
2019-05-19T03:26:59.006Z,7.30
2019-05-19T03:29:32.933Z,7.62
2019-05-19T03:32:23.929Z,7.10
2019-05-19T03:34:53.109Z,7.40
2019-05-19T03:37:22.157Z,7.55
2019-05-19T03:39:51.337Z,7.40
2019-05-19T03:42:20.477Z,7.60
2019-05-19T03:44:49.565Z,7.62
2019-05-19T03:47:18.714Z,8.20
2019-05-19T03:49:47.852Z,8.18
2019-05-19T03:52:17.056Z,8.28
2019-05-19T03:54:46.175Z,7.80
2019-05-19T03:57:15.315Z,7.90
2019-05-19T03:59:44.434Z,7.70
2019-05-19T04:02:13.558Z,8.20
2019-05-19T04:04:42.732Z,7.80
2019-05-19T04:07:11.831Z,8.45
2019-05-19T04:09:40.977Z,8.40
2019-05-19T04:12:10.104Z,8.10
2019-05-19T04:14:39.331Z,8.50
2019-05-19T04:17:08.424Z,7.72
2019-05-19T04:19:37.589Z,9.00
2019-05-19T04:22:06.698Z,8.40
2019-05-19T04:24:38.737Z,8.73
2019-05-19T04:27:07.897Z,8.93
2019-05-19T04:29:39.417Z,8.55
2019-05-19T04:32:07.952Z,9.03
2019-05-19T04:34:37.150Z,8.78
2019-05-19T04:37:06.274Z,9.08
2019-05-19T04:39:36.173Z,8.33
2019-05-19T04:42:05.331Z,8.90
2019-05-19T04:44:34.428Z,8.88
2019-05-19T04:47:03.644Z,9.00
2019-05-19T04:49:32.746Z,9.13
2019-05-19T04:52:07.041Z,9.40
2019-05-19T04:54:35.521Z,9.03
2019-05-19T04:57:04.758Z,8.98
2019-05-19T04:59:33.883Z,9.25
2019-05-19T05:02:02.992Z,8.78
2019-05-19T05:04:32.232Z,9.07
2019-05-19T05:07:01.388Z,9.28
2019-05-19T05:09:30.497Z,8.70
2019-05-19T05:11:59.600Z,9.10
2019-05-19T05:14:28.712Z,9.30
2019-05-19T05:16:58.004Z,9.28
2019-05-19T05:19:27.115Z,9.10
2019-05-19T05:21:56.266Z,9.53
2019-05-19T05:24:28.487Z,10.10
2019-05-19T05:26:56.198Z,10.15
2019-05-19T05:29:25.378Z,10.50
2019-05-19T05:31:54.476Z,9.60
2019-05-19T05:34:23.644Z,9.50
2019-05-19T05:36:52.763Z,10.13
2019-05-19T05:39:21.929Z,10.23
2019-05-19T05:41:51.095Z,10.37
2019-05-19T05:44:20.219Z,10.80
2019-05-19T05:46:49.372Z,10.20
2019-05-19T05:49:18.589Z,9.93
2019-05-19T05:51:47.916Z,10.55
2019-05-19T05:54:17.070Z,10.00
2019-05-19T05:56:46.192Z,10.27
2019-05-19T05:59:15.411Z,10.48
2019-05-19T06:01:44.569Z,10.43
2019-05-19T06:04:14.124Z,10.32
2019-05-19T06:06:45.774Z,9.93
2019-05-19T06:09:14.103Z,10.00
2019-05-19T06:11:43.296Z,10.53
2019-05-19T06:14:12.430Z,10.20
2019-05-19T06:16:41.585Z,10.40
2019-05-19T06:19:10.783Z,10.13
2019-05-19T06:21:39.960Z,11.00
2019-05-19T06:24:09.042Z,10.90
2019-05-19T06:26:38.198Z,10.30
2019-05-19T06:29:07.430Z,10.60
2019-05-19T06:31:36.592Z,10.27
2019-05-19T06:34:05.753Z,10.50
2019-05-19T06:36:34.968Z,10.70
2019-05-19T06:39:05.582Z,10.40
2019-05-19T06:41:34.758Z,10.30
2019-05-19T06:44:03.943Z,10.60
2019-05-19T06:46:33.120Z,10.25
2019-05-19T06:49:02.306Z,10.38
2019-05-19T06:51:31.588Z,10.50
2019-05-19T06:54:00.778Z,10.82
2019-05-19T06:56:29.995Z,10.20
2019-05-19T06:58:59.321Z,9.88
2019-05-19T07:01:28.473Z,10.67
2019-05-19T07:03:57.630Z,10.70
2019-05-19T07:06:26.834Z,10.63
2019-05-19T07:08:55.981Z,10.98
2019-05-19T07:11:25.125Z,11.50
2019-05-19T07:13:54.350Z,11.45
2019-05-19T07:16:23.499Z,11.80
2019-05-19T07:18:52.663Z,12.30
2019-05-19T07:21:21.823Z,10.90
2019-05-19T07:23:50.970Z,11.68
2019-05-19T07:26:20.159Z,11.18
2019-05-19T07:28:49.344Z,10.15
2019-05-19T07:31:18.484Z,10.90
2019-05-19T07:33:47.642Z,10.50
2019-05-19T07:36:16.888Z,11.12
2019-05-19T07:38:46.102Z,10.98
2019-05-19T07:41:15.316Z,11.22
2019-05-19T07:43:44.474Z,10.50
2019-05-19T07:46:13.897Z,11.57
2019-05-19T07:48:43.070Z,11.33
2019-05-19T07:51:12.219Z,10.98
2019-05-19T07:53:43.251Z,11.35
2019-05-19T07:56:12.253Z,11.10
2019-05-19T07:58:41.379Z,11.22
2019-05-19T08:01:10.506Z,10.50
2019-05-19T08:03:39.809Z,10.88
2019-05-19T08:06:09.471Z,11.18
2019-05-19T08:08:38.644Z,12.10
2019-05-19T08:11:07.785Z,11.05
2019-05-19T08:13:36.917Z,11.00
2019-05-19T08:16:06.112Z,11.30
2019-05-19T08:18:35.268Z,10.75
2019-05-19T08:21:04.429Z,11.57
2019-05-19T08:23:33.603Z,10.82
2019-05-19T08:26:02.806Z,10.10
2019-05-19T08:28:32.026Z,10.75
2019-05-19T08:31:01.248Z,10.30
2019-05-19T08:33:30.554Z,10.80
2019-05-19T08:35:59.736Z,11.25
2019-05-19T08:38:28.968Z,11.15
2019-05-19T08:40:58.221Z,10.60
2019-05-19T08:43:29.088Z,11.40
2019-05-19T08:45:58.245Z,10.80
2019-05-19T08:48:27.454Z,10.48
2019-05-19T08:50:56.596Z,10.88
2019-05-19T08:53:25.756Z,11.53
2019-05-19T08:55:55.039Z,10.30
2019-05-19T08:58:24.218Z,10.08
2019-05-19T09:00:53.417Z,10.60
2019-05-19T09:03:22.538Z,10.00
2019-05-19T09:05:51.705Z,10.43
2019-05-19T09:08:20.871Z,10.85
2019-05-19T09:10:50.108Z,11.00
2019-05-19T09:13:19.286Z,10.40
2019-05-19T09:15:48.447Z,10.23
2019-05-19T09:18:17.573Z,9.33
2019-05-19T09:20:46.722Z,9.58
2019-05-19T09:23:15.873Z,9.23
2019-05-19T09:25:45.088Z,9.95
2019-05-19T09:28:14.308Z,9.73
2019-05-19T09:30:43.426Z,10.97
2019-05-19T09:33:12.620Z,9.35
2019-05-19T09:35:41.780Z,10.68
2019-05-19T09:38:10.999Z,9.90
2019-05-19T09:40:40.169Z,9.60
2019-05-19T09:43:09.428Z,10.20
2019-05-19T09:45:38.546Z,9.50
2019-05-19T09:48:07.828Z,10.43
2019-05-19T09:50:36.983Z,9.50
2019-05-19T09:53:06.221Z,9.50
2019-05-19T09:55:35.381Z,9.47
2019-05-19T09:58:04.594Z,9.68
2019-05-19T10:00:33.822Z,9.23
2019-05-19T10:03:06.036Z,9.07
2019-05-19T10:05:35.198Z,9.13
2019-05-19T10:08:04.722Z,8.58
2019-05-19T10:10:55.915Z,8.30
2019-05-19T10:13:25.087Z,8.00
2019-05-19T10:15:54.226Z,8.55
2019-05-19T10:18:23.378Z,7.87
2019-05-19T10:20:52.771Z,8.58
2019-05-19T10:23:21.894Z,7.80
2019-05-19T10:25:51.012Z,7.62
2019-05-19T10:28:20.287Z,7.08
2019-05-19T10:30:49.442Z,7.50
2019-05-19T10:33:18.573Z,7.53
2019-05-19T10:35:47.734Z,7.65
2019-05-19T10:38:17.918Z,7.73
2019-05-19T10:40:47.632Z,7.30
2019-05-19T10:43:16.818Z,6.45
2019-05-19T10:45:47.844Z,6.00
2019-05-19T10:48:17.043Z,6.42
2019-05-19T10:50:46.248Z,6.40
2019-05-19T10:53:15.388Z,4.67
2019-05-19T10:55:44.533Z,5.08
2019-05-19T10:58:14.019Z,4.78
2019-05-19T11:00:43.253Z,4.90
2019-05-19T11:03:12.571Z,4.75
2019-05-19T11:05:42.837Z,6.20
2019-05-19T11:08:11.993Z,6.47
2019-05-19T11:10:41.219Z,6.75
2019-05-19T11:13:10.363Z,7.00
2019-05-19T11:15:39.645Z,6.90
2019-05-19T11:18:08.927Z,6.33
2019-05-19T11:20:38.100Z,7.03
2019-05-19T11:23:07.305Z,7.10
2019-05-19T11:25:49.282Z,6.72
2019-05-19T11:28:07.426Z,5.75
2019-05-19T11:30:36.598Z,5.27
2019-05-19T11:33:05.753Z,6.03
2019-05-19T11:35:34.969Z,4.75
2019-05-19T11:38:04.214Z,5.25
2019-05-19T11:40:33.465Z,6.20
2019-05-19T11:43:02.659Z,5.03
2019-05-19T11:45:31.819Z,5.43
2019-05-19T11:48:01.048Z,5.10
2019-05-19T11:50:30.203Z,5.10
2019-05-19T11:52:59.346Z,5.37
2019-05-19T11:55:28.513Z,5.90
2019-05-19T11:57:57.676Z,5.20
2019-05-19T12:00:26.954Z,5.30
2019-05-19T12:02:56.108Z,5.60
2019-05-19T12:05:25.399Z,4.90
2019-05-19T12:07:54.541Z,5.28
2019-05-19T12:10:23.705Z,5.35
2019-05-19T12:12:53.033Z,5.37
2019-05-19T12:15:22.276Z,5.30
2019-05-19T12:17:51.475Z,4.70
2019-05-19T12:20:20.591Z,4.00
2019-05-19T12:22:49.758Z,4.70
2019-05-19T12:25:18.922Z,4.33
2019-05-19T12:27:48.063Z,4.60
2019-05-19T12:30:21.565Z,4.70
2019-05-19T12:32:50.747Z,5.30
2019-05-19T12:35:19.919Z,4.90
2019-05-19T12:37:49.040Z,4.85
2019-05-19T12:40:18.164Z,4.22
2019-05-19T12:42:47.411Z,4.60
2019-05-19T12:45:17.415Z,4.35
2019-05-19T12:47:46.622Z,3.90
2019-05-19T12:50:15.959Z,4.25
2019-05-19T12:52:45.156Z,5.03
2019-05-19T12:55:14.338Z,5.70
2019-05-19T12:57:43.511Z,5.60
2019-05-19T13:00:13.184Z,4.70
2019-05-19T13:02:42.306Z,4.10
2019-05-19T13:05:11.664Z,5.05
2019-05-19T13:07:40.872Z,4.10
2019-05-19T13:10:10.057Z,3.90
2019-05-19T13:12:39.224Z,4.58
2019-05-19T13:15:09.261Z,4.30
2019-05-19T13:17:38.405Z,4.35
2019-05-19T13:20:07.711Z,3.40
2019-05-19T13:22:36.861Z,3.93
2019-05-19T13:25:06.120Z,3.70
2019-05-19T13:27:35.562Z,3.42
2019-05-19T13:30:05.146Z,3.10
2019-05-19T13:32:34.294Z,2.70
2019-05-19T13:35:03.478Z,3.17
2019-05-19T13:37:32.691Z,2.62
2019-05-19T13:40:02.319Z,3.00
2019-05-19T13:42:31.601Z,2.62
2019-05-19T13:45:00.902Z,2.60
2019-05-19T13:47:30.151Z,2.80
2019-05-19T13:49:59.338Z,2.95
2019-05-19T13:52:28.611Z,2.35
2019-05-19T13:54:57.804Z,2.60
2019-05-19T13:57:27.005Z,3.10
2019-05-19T13:59:56.157Z,2.60
2019-05-19T14:02:25.876Z,3.08
2019-05-19T14:04:55.034Z,2.60
2019-05-19T14:07:24.218Z,2.50
2019-05-19T14:09:53.537Z,2.47
2019-05-19T14:12:22.930Z,2.50
2019-05-19T14:14:52.372Z,3.08
2019-05-19T14:17:21.782Z,3.60
2019-05-19T14:19:51.081Z,2.98
2019-05-19T14:22:20.312Z,3.10
2019-05-19T14:24:49.620Z,2.95
2019-05-19T14:27:29.148Z,2.80
2019-05-19T14:29:49.919Z,2.70
2019-05-19T14:32:19.152Z,2.30
2019-05-19T14:34:48.478Z,2.70
2019-05-19T14:37:17.933Z,2.80
2019-05-19T14:39:47.207Z,2.83
2019-05-19T14:42:35.370Z,3.00
2019-05-19T14:45:04.943Z,3.10
2019-05-19T14:47:34.288Z,2.90
2019-05-19T14:50:03.483Z,2.85
2019-05-19T14:52:32.680Z,2.50
2019-05-19T14:55:02.100Z,2.65
2019-05-19T14:57:43.918Z,2.50
2019-05-19T15:00:02.999Z,2.43
2019-05-19T15:02:32.318Z,2.40
2019-05-19T15:05:01.561Z,2.20
2019-05-19T15:07:30.781Z,2.20
2019-05-19T15:09:59.991Z,2.20
2019-05-19T15:12:29.363Z,2.98
2019-05-19T15:14:58.533Z,3.20
2019-05-19T15:17:27.744Z,2.20
2019-05-19T15:19:56.953Z,2.70
2019-05-19T15:22:26.136Z,2.40
2019-05-19T15:24:55.540Z,2.52
2019-05-19T15:27:25.984Z,2.40
2019-05-19T15:29:55.483Z,2.80
2019-05-19T15:32:25.095Z,2.80
2019-05-19T15:34:54.307Z,2.62
2019-05-19T15:37:23.470Z,2.53
2019-05-19T15:39:52.679Z,2.60
2019-05-19T15:42:21.929Z,2.50
2019-05-19T15:44:51.225Z,2.60
2019-05-19T15:47:20.472Z,2.50
2019-05-19T15:49:49.731Z,2.50
2019-05-19T15:52:19.010Z,3.02
2019-05-19T15:54:48.206Z,2.58
2019-05-19T15:57:17.589Z,2.90
2019-05-19T15:59:46.825Z,2.50
2019-05-19T16:02:15.951Z,2.30
2019-05-19T16:04:45.170Z,2.30
2019-05-19T16:07:14.374Z,1.90
2019-05-19T16:09:43.562Z,1.90
2019-05-19T16:12:12.848Z,2.50
2019-05-19T16:14:42.019Z,2.23
2019-05-19T16:17:11.233Z,1.98
2019-05-19T16:19:40.386Z,2.17
2019-05-19T16:22:09.687Z,2.40
2019-05-19T16:24:38.898Z,2.02
2019-05-19T16:27:08.133Z,1.90
2019-05-19T16:29:37.320Z,2.20
2019-05-19T16:32:06.580Z,2.20
2019-05-19T16:34:35.783Z,2.20
2019-05-19T16:37:04.945Z,2.27
2019-05-19T16:39:34.154Z,1.90
2019-05-19T16:42:03.407Z,2.20
2019-05-19T16:44:32.635Z,2.20
2019-05-19T16:47:01.936Z,2.33
2019-05-19T16:49:31.145Z,2.40
2019-05-19T16:52:00.377Z,2.10
2019-05-19T16:54:33.537Z,2.43
2019-05-19T16:57:02.790Z,2.10
2019-05-19T16:59:32.700Z,2.00
2019-05-19T17:02:01.921Z,2.10
2019-05-19T17:04:32.065Z,2.02
2019-05-19T17:07:03.047Z,2.00
2019-05-19T17:09:32.390Z,2.13
2019-05-19T17:12:01.652Z,2.10
2019-05-19T17:14:32.451Z,2.40
2019-05-19T17:17:01.693Z,2.20
2019-05-19T17:19:30.893Z,2.37
2019-05-19T17:22:01.216Z,2.55
2019-05-19T17:24:31.844Z,2.42
2019-05-19T17:27:01.054Z,2.43
2019-05-19T17:29:30.309Z,2.22
2019-05-19T17:32:06.168Z,2.62
2019-05-19T17:34:30.455Z,2.50
2019-05-19T17:36:59.760Z,2.30
2019-05-19T17:39:29.261Z,2.60
2019-05-19T17:41:59.916Z,3.02
2019-05-19T17:44:29.228Z,2.45
2019-05-19T17:46:58.563Z,2.70
2019-05-19T17:49:27.758Z,2.40
2019-05-19T17:51:57.867Z,2.70
2019-05-19T17:54:27.097Z,2.40
2019-05-19T17:56:58.471Z,2.10
2019-05-19T17:59:27.732Z,2.70
2019-05-19T18:01:57.804Z,2.83
2019-05-19T18:04:27.020Z,2.50
2019-05-19T18:06:56.219Z,2.60
2019-05-19T18:09:25.760Z,2.30
2019-05-19T18:11:55.024Z,2.50
2019-05-19T18:14:24.199Z,2.80
2019-05-19T18:16:53.364Z,2.60
2019-05-19T18:19:22.627Z,2.67
2019-05-19T18:21:51.801Z,2.60
2019-05-19T18:24:21.020Z,2.60
2019-05-19T18:26:50.250Z,2.70
2019-05-19T18:29:30.500Z,2.80
2019-05-19T18:31:50.369Z,2.42
2019-05-19T18:34:19.600Z,2.20
2019-05-19T18:36:48.757Z,2.40
2019-05-19T18:39:17.964Z,2.65
2019-05-19T18:41:47.165Z,2.10
2019-05-19T18:44:16.366Z,2.40
2019-05-19T18:46:45.620Z,2.60
2019-05-19T18:49:14.966Z,2.50
2019-05-19T18:51:44.251Z,2.60
2019-05-19T18:54:13.420Z,2.40
2019-05-19T18:56:42.620Z,2.50
2019-05-19T18:59:11.827Z,2.50
2019-05-19T19:01:41.028Z,2.30
2019-05-19T19:04:10.349Z,2.77
2019-05-19T19:06:39.643Z,2.77
2019-05-19T19:09:08.856Z,2.70
2019-05-19T19:11:38.149Z,2.00
2019-05-19T19:14:07.397Z,2.58
2019-05-19T19:16:36.600Z,2.10
2019-05-19T19:19:06.123Z,2.10
2019-05-19T19:21:35.815Z,2.08
2019-05-19T19:24:05.390Z,2.20
2019-05-19T19:26:35.257Z,2.47
2019-05-19T19:29:06.057Z,2.80
2019-05-19T19:31:47.725Z,2.80
2019-05-19T19:34:07.171Z,2.70
2019-05-19T19:36:36.363Z,2.60
2019-05-19T19:39:06.411Z,2.83
2019-05-19T19:41:35.705Z,3.40
2019-05-19T19:44:04.894Z,3.80
2019-05-19T19:46:34.397Z,3.90
2019-05-19T19:49:03.642Z,3.70
2019-05-19T19:51:32.806Z,3.47
2019-05-19T19:54:02.035Z,2.60
2019-05-19T19:56:31.213Z,3.10
2019-05-19T19:59:00.424Z,3.05
2019-05-19T20:01:29.722Z,2.93
2019-05-19T20:03:58.916Z,3.08
2019-05-19T20:06:28.142Z,3.10
2019-05-19T20:08:57.385Z,3.20
2019-05-19T20:11:26.536Z,3.50
2019-05-19T20:13:55.769Z,3.80
2019-05-19T20:16:24.988Z,3.72
2019-05-19T20:18:54.295Z,3.50
2019-05-19T20:21:23.559Z,3.60
2019-05-19T20:23:52.773Z,3.70
2019-05-19T20:26:22.131Z,3.60
2019-05-19T20:28:51.367Z,4.00
2019-05-19T20:31:20.566Z,3.73
2019-05-19T20:33:49.761Z,4.20
2019-05-19T20:36:18.894Z,3.60
2019-05-19T20:38:48.110Z,3.77
2019-05-19T20:41:17.237Z,3.40
2019-05-19T20:43:46.408Z,3.02
2019-05-19T20:46:15.738Z,3.00
2019-05-19T20:48:44.997Z,3.47
2019-05-19T20:51:14.226Z,4.30
2019-05-19T20:53:43.399Z,5.28
2019-05-19T20:56:12.578Z,3.70
2019-05-19T20:58:41.868Z,3.70
2019-05-19T21:01:11.119Z,4.60
2019-05-19T21:03:40.607Z,4.80
2019-05-19T21:06:09.793Z,4.70
2019-05-19T21:08:38.984Z,5.70
2019-05-19T21:11:08.185Z,5.70
2019-05-19T21:13:37.323Z,6.62
2019-05-19T21:16:06.484Z,6.97
2019-05-19T21:18:35.633Z,8.10
2019-05-19T21:21:04.805Z,7.85
2019-05-19T21:23:34.107Z,7.53
2019-05-19T21:26:03.282Z,8.30
2019-05-19T21:28:32.465Z,7.40
2019-05-19T21:31:05.864Z,7.83
2019-05-19T21:33:32.541Z,7.50
2019-05-19T21:36:01.697Z,7.47
2019-05-19T21:38:30.886Z,7.80
2019-05-19T21:41:00.046Z,7.90
2019-05-19T21:43:29.639Z,7.78
2019-05-19T21:45:58.847Z,7.80
2019-05-19T21:48:34.910Z,8.68
2019-05-19T21:51:04.052Z,7.62
2019-05-19T21:53:33.247Z,8.10
2019-05-19T21:56:02.386Z,7.78
2019-05-19T21:58:31.539Z,7.40
2019-05-19T22:01:00.726Z,7.53
2019-05-19T22:03:29.910Z,7.67
2019-05-19T22:05:59.176Z,7.47
2019-05-19T22:08:28.319Z,7.60
2019-05-19T22:10:57.500Z,7.47
2019-05-19T22:13:26.632Z,7.90
2019-05-19T22:16:11.551Z,7.45
2019-05-19T22:18:26.776Z,7.20
2019-05-19T22:20:55.937Z,7.40
2019-05-19T22:23:25.038Z,6.35
2019-05-19T22:25:54.134Z,6.80
2019-05-19T22:28:23.301Z,6.50
2019-05-19T22:30:52.466Z,6.22
2019-05-19T22:33:21.683Z,6.12
2019-05-19T22:35:50.801Z,5.58
2019-05-19T22:38:19.993Z,6.17
2019-05-19T22:40:49.115Z,5.43
2019-05-19T22:43:18.220Z,5.47
2019-05-19T22:45:47.486Z,5.75
2019-05-19T22:48:16.613Z,5.78
2019-05-19T22:50:45.779Z,5.35
2019-05-19T22:53:16.841Z,5.60
2019-05-19T22:55:46.051Z,5.53
2019-05-19T22:58:15.197Z,6.00
2019-05-19T23:00:44.331Z,6.27
2019-05-19T23:03:13.432Z,5.60
2019-05-19T23:05:42.688Z,6.20
2019-05-19T23:08:11.825Z,6.10
2019-05-19T23:10:40.979Z,6.10
2019-05-19T23:13:10.101Z,6.28
2019-05-19T23:15:39.229Z,6.00
2019-05-19T23:18:08.429Z,5.77
2019-05-19T23:20:37.603Z,6.20
2019-05-19T23:23:06.749Z,6.00
2019-05-19T23:25:35.875Z,5.67
2019-05-19T23:28:04.991Z,5.80
2019-05-19T23:30:34.127Z,6.17
2019-05-19T23:33:03.227Z,5.60
2019-05-19T23:35:32.352Z,6.03
2019-05-19T23:38:01.619Z,5.40
2019-05-19T23:40:30.759Z,5.90
2019-05-19T23:42:59.912Z,5.00
2019-05-19T23:45:29.035Z,5.08
2019-05-19T23:47:58.263Z,5.20
2019-05-19T23:50:27.422Z,5.23
2019-05-19T23:52:56.671Z,4.70
2019-05-19T23:55:25.819Z,4.97
2019-05-19T23:57:54.890Z,4.97
